Time;durP1;ratioP1;P1;durP2;ratioP2;P2;SDS_P1;SDS_P2;PMS_P1;PMS_P2;Temp;Humidity;BMP_temperature;BMP_pressure;BME280_temperature;BME280_humidity;BME280_pressure;Samples;Min_cycle;Max_cycle;Signal;HPM_P1;HPM_P2
2022/01/08 00:01:14;;;;;;;24.98;11.12;;;;;;;-1.87;67.53;100702.03;4502314;31;20135;-72
2022/01/08 00:03:41;;;;;;;24.58;8.93;;;;;;;-1.92;68.16;100701.81;4502244;31;20143;-72
2022/01/08 00:06:09;;;;;;;22.45;9.63;;;;;;;-2.02;68.71;100693.59;4502293;31;20537;-72
2022/01/08 00:08:36;;;;;;;16.70;8.48;;;;;;;-1.99;68.98;100698.88;4502275;31;20127;-72
2022/01/08 00:11:06;;;;;;;21.80;8.25;;;;;;;-1.94;68.81;100694.81;4501953;31;20099;-72
2022/01/08 00:13:34;;;;;;;19.62;7.70;;;;;;;-2.05;68.78;100690.87;4502333;31;20442;-72
2022/01/08 00:16:02;;;;;;;20.10;8.02;;;;;;;-2.06;69.42;100682.25;4502538;31;20118;-72
2022/01/08 00:18:29;;;;;;;18.08;8.68;;;;;;;-2.00;69.37;100679.94;4502243;31;20107;-72
2022/01/08 00:20:56;;;;;;;22.85;8.93;;;;;;;-1.91;69.16;100676.84;4502288;31;20122;-72
2022/01/08 00:23:24;;;;;;;25.62;9.30;;;;;;;-1.98;69.45;100675.75;4502131;31;20399;-72
2022/01/08 00:25:51;;;;;;;19.70;9.15;;;;;;;-2.06;69.66;100678.78;4502204;31;20469;-72
2022/01/08 00:28:18;;;;;;;19.62;8.20;;;;;;;-2.12;70.41;100675.94;4502149;31;20096;-72
2022/01/08 00:30:47;;;;;;;21.23;8.32;;;;;;;-1.84;68.60;100672.84;4502118;31;20436;-72
2022/01/08 00:33:14;;;;;;;22.40;9.77;;;;;;;-1.70;67.50;100672.62;4502101;31;20498;-72
2022/01/08 00:35:41;;;;;;;26.20;8.93;;;;;;;-1.97;68.51;100676.63;4502229;31;20122;-72
2022/01/08 00:38:09;;;;;;;22.92;9.65;;;;;;;-2.14;69.58;100669.84;4502231;31;20091;-72
2022/01/08 00:40:36;;;;;;;20.83;8.13;;;;;;;-2.20;69.70;100663.56;4502133;31;20091;-72
2022/01/08 00:43:03;;;;;;;21.05;8.38;;;;;;;-2.00;68.97;100663.56;4502207;31;20503;-72
2022/01/08 00:45:30;;;;;;;19.00;8.02;;;;;;;-1.97;68.59;100666.28;4502019;31;20436;-72
2022/01/08 00:47:58;;;;;;;21.52;8.27;;;;;;;-2.12;69.37;100660.44;4502016;31;20514;-72
2022/01/08 00:50:25;;;;;;;17.20;7.45;;;;;;;-2.20;69.99;100660.13;4502151;31;20103;-72
2022/01/08 00:52:52;;;;;;;21.15;8.50;;;;;;;-2.16;69.83;100654.25;4501919;31;20092;-72
2022/01/08 00:55:20;;;;;;;19.67;8.40;;;;;;;-2.13;69.70;100645.78;4501830;31;20147;-72
2022/01/08 00:57:47;;;;;;;16.92;7.95;;;;;;;-2.08;68.97;100650.34;4501833;31;20099;-72
2022/01/08 01:00:14;;;;;;;18.90;7.95;;;;;;;-2.18;69.46;100645.59;4501788;31;20533;-72
2022/01/08 01:02:41;;;;;;;16.70;7.75;;;;;;;-2.20;69.58;100642.03;4501742;31;20163;-72
2022/01/08 01:05:09;;;;;;;21.35;8.07;;;;;;;-2.26;69.57;100632.34;4501819;31;20136;-72
2022/01/08 01:07:37;;;;;;;25.30;8.73;;;;;;;-2.20;69.60;100644.63;4501730;31;20087;-72
2022/01/08 01:10:06;;;;;;;25.73;8.65;;;;;;;-2.20;69.64;100629.12;4501802;31;20121;-72
2022/01/08 01:12:34;;;;;;;18.45;8.57;;;;;;;-2.32;70.20;100626.03;4501705;31;20091;-72
2022/01/08 01:15:10;;;;;;;27.55;9.77;;;;;;;-2.45;70.64;100615.16;4501943;31;20511;-72
2022/01/08 01:17:38;;;;;;;20.88;8.55;;;;;;;-2.44;70.42;100614.38;4501854;31;20479;-72
2022/01/08 01:20:07;;;;;;;20.80;8.75;;;;;;;-2.50;70.96;100610.63;4501740;31;20126;-72
2022/01/08 01:25:22;;;;;;;20.37;8.85;;;;;;;-2.13;69.50;100607.94;4501826;31;20076;-72
2022/01/08 01:30:29;;;;;;;20.33;8.75;;;;;;;-2.46;71.39;100592.75;4501560;31;20084;-72
2022/01/08 01:48:53;;;;;;;23.87;8.98;;;;;;;-2.90;71.55;100591.69;4501670;31;20099;-72
2022/01/08 01:51:22;;;;;;;22.70;8.90;;;;;;;-2.98;71.56;100585.28;4501424;31;20442;-72
2022/01/08 01:53:50;;;;;;;23.50;9.05;;;;;;;-2.99;71.33;100582.66;4501447;31;20122;-72
2022/01/08 01:56:19;;;;;;;21.62;9.27;;;;;;;-2.99;71.14;100573.22;4501536;31;20095;-72
2022/01/08 01:58:47;;;;;;;18.08;9.82;;;;;;;-2.96;71.17;100572.47;4501384;31;20096;-72
2022/01/08 02:01:15;;;;;;;21.60;10.40;;;;;;;-3.14;71.63;100567.38;4501290;31;20199;-72
2022/01/08 02:03:42;;;;;;;23.75;10.32;;;;;;;-3.23;71.86;100566.94;4501319;31;20581;-72
2022/01/08 02:06:10;;;;;;;28.27;10.75;;;;;;;-3.19;71.18;100563.69;4501238;31;20087;-72
2022/01/08 02:08:38;;;;;;;24.15;10.40;;;;;;;-3.22;71.26;100566.13;4501141;31;20168;-72
2022/01/08 02:11:07;;;;;;;23.92;9.48;;;;;;;-3.21;71.02;100570.47;4501162;31;20100;-72
2022/01/08 02:13:35;;;;;;;20.23;9.82;;;;;;;-3.19;70.85;100566.25;4501145;31;20122;-72
2022/01/08 02:16:04;;;;;;;24.60;9.88;;;;;;;-3.24;70.54;100563.47;4501115;31;20380;-72
2022/01/08 02:18:33;;;;;;;21.05;10.10;;;;;;;-3.52;71.27;100569.03;4501068;31;20088;-72
2022/01/08 02:21:02;;;;;;;22.65;10.30;;;;;;;-3.56;71.60;100568.81;4501269;31;20087;-72
2022/01/08 02:23:30;;;;;;;17.65;9.20;;;;;;;-3.68;71.89;100566.53;4500910;31;20156;-72
2022/01/08 02:26:03;;;;;;;18.40;9.55;;;;;;;-3.79;71.78;100557.41;4501033;31;20096;-72
2022/01/08 02:28:30;;;;;;;22.35;9.20;;;;;;;-3.72;71.35;100564.62;4501254;31;20123;-72
2022/01/08 02:30:57;;;;;;;23.83;9.52;;;;;;;-3.65;70.82;100569.25;4501092;31;20455;-72
2022/01/08 02:33:26;;;;;;;22.15;9.30;;;;;;;-3.70;71.05;100568.16;4500827;31;20096;-72
2022/01/08 02:35:54;;;;;;;21.65;10.15;;;;;;;-3.84;71.31;100554.63;4502873;31;20084;-72
2022/01/08 02:38:22;;;;;;;18.37;9.65;;;;;;;-3.84;71.45;100562.34;4502972;31;20164;-72
2022/01/08 02:40:57;;;;;;;26.73;10.40;;;;;;;-3.66;70.67;100555.50;4503024;31;20100;-72
2022/01/08 02:43:27;;;;;;;24.80;10.32;;;;;;;-3.69;70.79;100554.47;4502785;31;20101;-72
2022/01/08 02:45:55;;;;;;;20.20;9.75;;;;;;;-3.74;71.05;100551.69;4503141;31;20109;-72
2022/01/08 02:48:22;;;;;;;17.62;9.70;;;;;;;-3.71;70.85;100567.28;4502821;31;20130;-72
2022/01/08 02:50:49;;;;;;;21.30;9.48;;;;;;;-3.64;70.56;100563.28;4502906;31;20126;-72
2022/01/08 02:53:16;;;;;;;18.95;8.65;;;;;;;-3.80;71.03;100558.22;4502795;31;20436;-72
2022/01/08 02:55:43;;;;;;;17.00;8.43;;;;;;;-4.09;72.61;100558.56;4502848;31;20083;-72
2022/01/08 02:58:11;;;;;;;21.20;9.18;;;;;;;-4.08;72.32;100546.59;4502711;31;20088;-72
2022/01/08 03:00:38;;;;;;;27.85;9.57;;;;;;;-4.09;72.62;100542.25;4502741;31;20540;-72
2022/01/08 03:03:05;;;;;;;19.60;9.98;;;;;;;-4.10;72.54;100548.19;4502666;31;20084;-72
2022/01/08 03:05:33;;;;;;;22.33;9.32;;;;;;;-3.90;72.05;100546.59;4502758;31;20100;-72
2022/01/08 03:08:00;;;;;;;16.50;8.90;;;;;;;-4.06;72.26;100547.56;4502602;31;20127;-72
2022/01/08 03:10:27;;;;;;;18.48;9.27;;;;;;;-4.12;72.65;100544.66;4502657;31;20095;-72
2022/01/08 03:12:54;;;;;;;22.05;9.93;;;;;;;-4.06;72.17;100544.97;4502635;31;20415;-72
2022/01/08 03:15:23;;;;;;;19.98;9.45;;;;;;;-4.25;73.12;100544.84;4502600;31;20787;-72
2022/01/08 03:17:50;;;;;;;17.67;8.52;;;;;;;-4.26;73.25;100540.53;4502431;31;20095;-72
2022/01/08 03:20:18;;;;;;;25.30;9.35;;;;;;;-4.24;73.15;100546.63;4502535;31;20471;-72
2022/01/08 03:22:46;;;;;;;18.90;9.90;;;;;;;-4.17;72.71;100546.13;4502499;31;20167;-72
2022/01/08 03:25:15;;;;;;;17.42;8.48;;;;;;;-4.31;73.65;100545.47;4502474;31;20423;-72
2022/01/08 03:27:44;;;;;;;19.27;8.85;;;;;;;-4.31;73.84;100545.47;4502488;31;20092;-72
2022/01/08 03:30:12;;;;;;;20.02;9.15;;;;;;;-4.36;74.22;100545.19;4502470;31;20481;-72
2022/01/08 03:32:40;;;;;;;19.35;9.43;;;;;;;-4.16;73.33;100556.50;4502666;31;20136;-72
2022/01/08 03:35:08;;;;;;;20.27;9.65;;;;;;;-4.47;74.04;100558.34;4502435;31;20160;-72
2022/01/08 03:37:36;;;;;;;15.50;9.10;;;;;;;-4.49;73.78;100558.25;4502365;31;20119;-72
2022/01/08 03:40:05;;;;;;;17.75;9.07;;;;;;;-4.27;72.59;100565.38;4502392;31;20164;-72
2022/01/08 03:42:32;;;;;;;16.42;9.05;;;;;;;-4.14;72.68;100561.72;4502345;31;20114;-72
2022/01/08 03:45:00;;;;;;;20.75;10.38;;;;;;;-4.23;72.73;100566.41;4502319;31;20084;-72
2022/01/08 03:49:56;;;;;;;22.73;9.38;;;;;;;-4.58;74.58;100555.22;4502606;31;20115;-72
2022/01/08 03:52:24;;;;;;;23.27;9.80;;;;;;;-4.79;76.11;100569.53;4502286;31;20440;-72
2022/01/08 03:54:51;;;;;;;20.65;8.35;;;;;;;-4.79;76.25;100569.53;4502232;31;20092;-72
2022/01/08 03:57:19;;;;;;;22.90;9.57;;;;;;;-4.95;77.73;100573.84;4502204;31;20096;-72
2022/01/08 03:59:46;;;;;;;16.92;8.57;;;;;;;-4.95;77.73;100567.81;4502195;31;20550;-72
2022/01/08 04:02:13;;;;;;;18.58;9.38;;;;;;;-5.05;78.27;100566.47;4502183;31;20464;-72
2022/01/08 04:04:41;;;;;;;19.50;9.93;;;;;;;-4.92;77.40;100568.87;4502252;31;20111;-72
2022/01/08 04:07:09;;;;;;;19.48;9.70;;;;;;;-4.90;77.28;100564.72;4502130;31;20156;-72
2022/01/08 04:09:36;;;;;;;18.52;9.05;;;;;;;-4.96;77.98;100556.66;4502317;31;20171;-72
2022/01/08 04:12:06;;;;;;;19.23;8.93;;;;;;;-5.13;79.42;100548.06;4502120;31;20499;-72
2022/01/08 04:14:48;;;;;;;17.65;8.60;;;;;;;-4.96;78.15;100550.66;4502227;31;20114;-72
2022/01/08 04:17:16;;;;;;;21.58;8.98;;;;;;;-4.73;76.66;100546.72;4487497;31;20552;-72
2022/01/08 04:19:44;;;;;;;20.88;8.95;;;;;;;-4.94;78.46;100539.66;4502268;31;20091;-72
2022/01/08 04:22:13;;;;;;;22.20;9.82;;;;;;;-5.12;79.17;100534.44;4502007;31;20144;-72
2022/01/08 04:24:41;;;;;;;21.05;8.75;;;;;;;-4.81;77.58;100538.59;4502235;31;20431;-72
2022/01/08 04:27:10;;;;;;;18.75;9.65;;;;;;;-4.84;77.67;100529.06;4502013;31;20095;-72
2022/01/08 04:29:37;;;;;;;19.73;9.18;;;;;;;-4.93;78.91;100519.97;4502046;31;20099;-72
2022/01/08 04:32:05;;;;;;;20.85;8.95;;;;;;;-4.64;77.68;100518.91;4502022;31;20496;-72
2022/01/08 04:34:32;;;;;;;17.15;8.15;;;;;;;-4.55;77.32;100524.53;4502021;31;20438;-72
2022/01/08 04:36:59;;;;;;;18.25;8.52;;;;;;;-4.52;76.62;100514.41;4501928;31;20092;-72
2022/01/08 04:39:27;;;;;;;19.95;8.75;;;;;;;-4.34;75.25;100510.16;4502265;31;20123;-72
2022/01/08 04:41:54;;;;;;;14.95;7.47;;;;;;;-4.40;74.96;100508.97;4501939;31;20156;-72
2022/01/08 04:44:22;;;;;;;17.87;8.18;;;;;;;-4.47;75.25;100502.63;4501893;31;20111;-72
2022/01/08 04:46:49;;;;;;;18.75;7.87;;;;;;;-4.41;74.85;100500.38;4501842;31;20088;-72
2022/01/08 04:49:16;;;;;;;15.77;8.02;;;;;;;-4.64;75.49;100494.06;4501877;31;20096;-72
2022/01/08 04:51:45;;;;;;;19.75;8.20;;;;;;;-4.92;77.30;100491.78;4501864;31;20092;-72
2022/01/08 04:54:13;;;;;;;16.75;8.07;;;;;;;-4.81;76.62;100494.91;4501800;31;20104;-72
2022/01/08 04:56:40;;;;;;;18.08;7.62;;;;;;;-4.75;76.17;100499.47;4501686;31;20357;-72
2022/01/08 04:59:07;;;;;;;17.08;7.95;;;;;;;-4.66;75.60;100494.81;4500864;31;20517;-72
2022/01/08 05:01:35;;;;;;;13.68;8.57;;;;;;;-4.69;75.85;100489.53;4501764;31;20091;-72
2022/01/08 05:04:02;;;;;;;19.23;8.48;;;;;;;-4.81;76.49;100488.06;4501830;31;20095;-72
2022/01/08 05:06:31;;;;;;;18.62;8.00;;;;;;;-4.68;75.92;100488.69;4501808;31;20527;-72
2022/01/08 05:08:58;;;;;;;20.25;8.93;;;;;;;-4.61;74.96;100495.91;4501825;31;20108;-72
2022/01/08 05:11:27;;;;;;;22.87;9.43;;;;;;;-4.69;75.69;100492.97;4501729;31;20146;-72
2022/01/08 05:13:55;;;;;;;18.95;9.82;;;;;;;-4.76;76.58;100493.47;4501715;31;20100;-72
2022/01/08 05:16:25;;;;;;;17.83;8.77;;;;;;;-4.47;75.19;100491.47;4501866;31;20095;-72
2022/01/08 05:18:54;;;;;;;15.00;7.85;;;;;;;-4.14;73.47;100499.97;4501665;31;20195;-72
2022/01/08 05:21:27;;;;;;;16.02;8.30;;;;;;;-3.92;72.72;100502.78;4501611;31;20080;-72
2022/01/08 05:23:56;;;;;;;18.15;8.00;;;;;;;-4.17;73.50;100499.81;4501718;31;20093;-72
2022/01/08 05:26:25;;;;;;;17.40;8.30;;;;;;;-4.51;75.08;100497.28;4501653;31;20423;-72
2022/01/08 05:28:53;;;;;;;19.40;7.93;;;;;;;-4.58;75.35;100493.50;4501604;31;20099;-72
2022/01/08 05:31:23;;;;;;;17.37;7.00;;;;;;;-4.56;75.80;100509.88;4501984;31;20096;-72
2022/01/08 05:33:51;;;;;;;14.38;7.68;;;;;;;-4.18;74.19;100505.75;4501571;31;20099;-72
2022/01/08 05:36:18;;;;;;;15.75;7.20;;;;;;;-4.10;73.53;100505.34;4501576;31;20698;-72
2022/01/08 05:38:45;;;;;;;23.85;9.82;;;;;;;-4.02;73.38;100503.12;4501615;31;20091;-72
2022/01/08 05:41:13;;;;;;;31.95;13.48;;;;;;;-4.39;75.65;100501.31;4501602;31;20083;-72
2022/01/08 05:43:40;;;;;;;39.47;15.75;;;;;;;-4.76;77.82;100502.88;4501421;31;20478;-72
2022/01/08 05:46:07;;;;;;;26.90;12.50;;;;;;;-4.75;77.95;100499.47;4501356;31;20107;-72
2022/01/08 05:48:36;;;;;;;29.60;13.02;;;;;;;-4.73;77.58;100497.87;4501672;31;20099;-72
2022/01/08 05:51:03;;;;;;;25.80;11.73;;;;;;;-4.74;77.41;100498.66;4501417;31;20156;-72
2022/01/08 05:53:31;;;;;;;22.98;11.18;;;;;;;-4.51;75.64;100499.84;4501399;31;20114;-72
2022/01/08 05:55:58;;;;;;;28.20;9.93;;;;;;;-4.44;74.87;100513.09;4501599;31;20166;-72
2022/01/08 05:58:25;;;;;;;28.12;9.60;;;;;;;-4.52;75.31;100500.63;4501344;31;20126;-72
2022/01/08 06:00:52;;;;;;;17.80;9.10;;;;;;;-4.68;75.92;100506.69;4501322;31;20092;-72
2022/01/08 06:03:20;;;;;;;19.67;9.18;;;;;;;-4.58;75.20;100514.97;4501337;31;20088;-72
2022/01/08 06:05:48;;;;;;;23.30;9.30;;;;;;;-4.81;76.46;100513.75;4501502;31;20451;-72
2022/01/08 06:08:15;;;;;;;21.58;10.07;;;;;;;-4.64;74.97;100524.03;4501037;31;20104;-72
2022/01/08 06:10:42;;;;;;;24.23;8.90;;;;;;;-4.65;75.15;100520.59;4500926;31;20084;-72
2022/01/08 06:13:09;;;;;;;24.80;11.38;;;;;;;-4.58;75.08;100529.50;4501146;31;20388;-72
2022/01/08 06:15:36;;;;;;;28.95;13.45;;;;;;;-5.08;77.47;100533.78;4501297;31;20459;-72
2022/01/08 06:18:03;;;;;;;28.25;12.75;;;;;;;-5.05;78.27;100536.53;4495758;31;168640;-72
2022/01/08 06:20:30;;;;;;;33.55;14.82;;;;;;;-5.72;82.70;100545.72;4501233;31;20084;-72
2022/01/08 06:22:59;;;;;;;34.10;15.40;;;;;;;-5.80;83.27;100539.25;4500868;31;20152;-72
2022/01/08 06:25:26;;;;;;;30.58;12.95;;;;;;;-5.60;82.23;100540.38;4501000;31;20122;-72
2022/01/08 06:27:54;;;;;;;35.17;15.95;;;;;;;-5.81;83.07;100540.94;4500990;31;20091;-72
2022/01/08 06:30:21;;;;;;;30.73;13.90;;;;;;;-5.93;84.32;100535.16;4500962;31;20092;-72
2022/01/08 06:32:49;;;;;;;42.67;18.10;;;;;;;-5.87;84.00;100534.56;4501144;31;20095;-72
2022/01/08 06:35:16;;;;;;;72.15;21.75;;;;;;;-5.99;84.62;100532.25;4501172;31;20148;-72
2022/01/08 06:37:43;;;;;;;71.15;18.58;;;;;;;-5.92;84.06;100544.59;4500822;31;20443;-72
2022/01/08 06:40:11;;;;;;;65.60;20.27;;;;;;;-5.79;82.79;100534.22;4500818;31;20125;-72
2022/01/08 06:42:38;;;;;;;54.55;17.08;;;;;;;-5.42;80.52;100530.22;4500787;31;20099;-72
2022/01/08 06:45:05;;;;;;;38.60;11.80;;;;;;;-5.10;79.03;100532.81;4500652;31;20080;-72
2022/01/08 06:47:33;;;;;;;34.45;11.85;;;;;;;-5.48;80.08;100537.56;4500799;31;20143;-72
2022/01/08 06:50:00;;;;;;;38.75;14.25;;;;;;;-5.53;80.45;100537.34;4500904;31;20615;-72
2022/01/08 06:52:28;;;;;;;53.22;18.65;;;;;;;-5.44;80.00;100526.66;4500810;31;20100;-72
2022/01/08 06:54:55;;;;;;;44.47;18.48;;;;;;;-5.31;79.18;100521.41;4500526;31;20099;-72
2022/01/08 06:57:23;;;;;;;60.85;22.15;;;;;;;-5.06;78.10;100531.28;4500498;31;20080;-72
2022/01/08 06:59:50;;;;;;;49.53;21.60;;;;;;;-4.83;76.57;100528.25;4500494;31;20152;-72
2022/01/08 07:02:17;;;;;;;65.37;22.70;;;;;;;-4.78;76.06;100525.03;4500571;31;20083;-72
2022/01/08 07:04:44;;;;;;;66.57;23.55;;;;;;;-4.99;77.66;100517.09;4500324;31;20568;-72
2022/01/08 07:07:12;;;;;;;72.47;24.25;;;;;;;-5.01;78.15;100516.13;4500386;31;20715;-72
2022/01/08 07:09:39;;;;;;;68.57;23.35;;;;;;;-4.62;76.07;100512.16;4500554;31;20106;-72
2022/01/08 07:12:07;;;;;;;59.25;19.27;;;;;;;-4.45;75.35;100512.97;4500365;31;20092;-72
2022/01/08 07:14:34;;;;;;;47.53;17.67;;;;;;;-4.63;75.58;100508.72;4500297;31;20156;-72
2022/01/08 07:17:01;;;;;;;48.22;17.45;;;;;;;-4.84;76.28;100508.50;4500195;31;20205;-72
2022/01/08 07:19:29;;;;;;;45.67;16.87;;;;;;;-4.78;76.37;100507.91;4500315;31;20190;-72
2022/01/08 07:21:56;;;;;;;43.63;16.50;;;;;;;-4.70;76.15;100503.16;4501628;31;20096;-72
2022/01/08 07:24:23;;;;;;;30.95;13.95;;;;;;;-4.58;75.81;100501.22;4502385;31;20192;-72
2022/01/08 07:26:50;;;;;;;32.20;13.88;;;;;;;-4.63;76.39;100500.09;4502452;31;20103;-72
2022/01/08 07:29:17;;;;;;;42.90;17.77;;;;;;;-4.61;76.20;100498.50;4502452;31;20496;-72
2022/01/08 07:31:45;;;;;;;41.92;16.60;;;;;;;-4.45;75.65;100493.31;4502428;31;20104;-72
2022/01/08 07:34:12;;;;;;;36.13;14.77;;;;;;;-4.18;74.62;100490.31;4502543;31;20116;-72
2022/01/08 07:36:39;;;;;;;39.28;15.05;;;;;;;-4.01;73.66;100501.44;4502419;31;20934;-72
2022/01/08 07:39:06;;;;;;;32.10;14.13;;;;;;;-3.86;73.18;100504.75;4502521;31;20080;-72
2022/01/08 07:41:33;;;;;;;37.78;15.73;;;;;;;-3.62;72.38;100510.16;4502324;31;20119;-72
2022/01/08 07:44:01;;;;;;;37.53;15.82;;;;;;;-3.48;72.08;100505.66;4487634;31;20139;-72
2022/01/08 07:46:28;;;;;;;29.70;12.85;;;;;;;-3.29;71.77;100510.84;4502390;31;20115;-72
2022/01/08 07:48:55;;;;;;;33.05;12.93;;;;;;;-3.08;70.64;100498.03;4502247;31;20075;-72
2022/01/08 07:51:22;;;;;;;30.58;13.00;;;;;;;-3.01;70.73;100497.50;4502222;31;20106;-72
2022/01/08 07:53:50;;;;;;;57.25;21.10;;;;;;;-3.02;70.98;100489.69;4502172;31;20119;-72
2022/01/08 07:56:17;;;;;;;46.90;18.37;;;;;;;-2.83;70.31;100478.50;4502248;31;20530;-72
2022/01/08 07:58:44;;;;;;;32.85;14.68;;;;;;;-2.76;70.67;100472.78;4502207;31;20092;-72
2022/01/08 08:01:11;;;;;;;31.08;12.88;;;;;;;-2.71;70.53;100484.19;4502349;31;20169;-72
2022/01/08 08:03:38;;;;;;;35.58;14.07;;;;;;;-2.70;70.89;100479.09;4502296;31;20448;-72
2022/01/08 08:06:10;;;;;;;34.08;12.55;;;;;;;-2.40;69.64;100481.22;4502167;31;20485;-72
2022/01/08 08:08:37;;;;;;;33.83;13.18;;;;;;;-2.21;68.89;100475.97;4502200;31;20408;-72
2022/01/08 08:11:04;;;;;;;29.02;12.75;;;;;;;-2.31;70.28;100475.53;4502308;31;20084;-72
2022/01/08 08:13:36;;;;;;;32.25;13.90;;;;;;;-2.43;71.10;100470.75;4502224;31;20530;-72
2022/01/08 08:16:04;;;;;;;28.33;13.98;;;;;;;-2.05;70.67;100459.41;4502454;31;20505;-72
2022/01/08 08:18:31;;;;;;;30.90;13.88;;;;;;;-1.67;69.32;100460.00;4501977;31;20110;-72
2022/01/08 08:20:59;;;;;;;35.10;12.80;;;;;;;-1.40;67.93;100448.97;4502087;31;20084;-72
2022/01/08 08:23:26;;;;;;;34.17;13.07;;;;;;;-1.12;66.67;100436.22;4501899;31;20088;-72
2022/01/08 08:25:53;;;;;;;30.08;13.25;;;;;;;-1.12;66.35;100430.19;4502161;31;20099;-72
2022/01/08 08:28:21;;;;;;;30.12;12.15;;;;;;;-1.07;65.71;100441.53;4502067;31;20088;-72
2022/01/08 08:30:48;;;;;;;28.87;13.15;;;;;;;-1.06;66.04;100432.97;4502018;31;20436;-72
2022/01/08 08:33:15;;;;;;;42.65;15.32;;;;;;;-1.27;67.11;100433.97;4501796;31;20092;-72
2022/01/08 08:35:43;;;;;;;38.50;13.90;;;;;;;-1.08;66.98;100432.91;4501983;31;20103;-72
2022/01/08 08:38:11;;;;;;;34.03;13.40;;;;;;;-0.97;66.52;100435.88;4502158;31;20096;-72
2022/01/08 08:40:38;;;;;;;35.92;14.77;;;;;;;-0.77;66.22;100439.16;4501971;31;20148;-72
2022/01/08 08:43:06;;;;;;;42.03;18.00;;;;;;;-0.56;65.74;100434.72;4501871;31;20100;-72
2022/01/08 08:45:33;;;;;;;32.25;13.62;;;;;;;-0.47;65.34;100438.44;4501940;31;20479;-72
2022/01/08 08:48:00;;;;;;;36.83;15.85;;;;;;;-0.26;64.76;100433.97;4501921;31;20088;-72
2022/01/08 08:50:28;;;;;;;31.77;13.68;;;;;;;-0.42;65.07;100442.94;4501900;31;20167;-72
2022/01/08 08:52:55;;;;;;;34.95;15.60;;;;;;;-0.40;65.97;100455.94;4501805;31;20115;-72
2022/01/08 08:55:22;;;;;;;29.37;12.57;;;;;;;-0.47;65.58;100449.66;4501823;31;20088;-72
2022/01/08 08:57:49;;;;;;;32.95;12.00;;;;;;;-0.36;65.48;100445.72;4501781;31;20083;-72
2022/01/08 09:00:17;;;;;;;24.63;10.77;;;;;;;-0.28;65.72;100433.06;4501951;31;20630;-72
2022/01/08 09:02:44;;;;;;;29.15;11.15;;;;;;;-0.27;65.52;100432.22;4501918;31;20563;-72
2022/01/08 09:05:12;;;;;;;24.92;11.50;;;;;;;-0.15;65.13;100437.78;4501689;31;20099;-72
2022/01/08 09:07:39;;;;;;;38.53;12.88;;;;;;;-0.05;64.76;100437.25;4501739;31;20088;-72
2022/01/08 09:10:09;;;;;;;28.05;11.45;;;;;;;0.01;64.37;100435.69;4501796;31;20092;-72
2022/01/08 09:12:37;;;;;;;25.45;11.10;;;;;;;0.07;64.52;100438.44;4501707;31;20164;-72
2022/01/08 09:15:06;;;;;;;22.23;9.57;;;;;;;0.28;63.35;100436.50;4501747;31;20111;-72
2022/01/08 09:17:35;;;;;;;16.50;8.32;;;;;;;0.53;62.89;100432.97;4501798;31;20145;-72
2022/01/08 09:20:04;;;;;;;17.00;6.80;;;;;;;0.68;62.10;100424.75;4501801;31;20436;-72
2022/01/08 09:22:31;;;;;;;17.05;7.87;;;;;;;0.94;61.27;100415.97;4501625;31;20096;-72
2022/01/08 09:24:59;;;;;;;16.12;7.10;;;;;;;1.31;59.07;100416.97;4501648;31;20122;-72
2022/01/08 09:27:26;;;;;;;14.90;7.35;;;;;;;1.66;57.67;100411.75;4501669;31;20076;-72
2022/01/08 09:29:55;;;;;;;13.45;7.07;;;;;;;2.10;56.84;100404.13;4501657;31;20415;-72
2022/01/08 09:32:23;;;;;;;14.55;8.05;;;;;;;2.15;57.38;100407.72;4501533;31;20096;-72
2022/01/08 09:34:50;;;;;;;16.48;7.90;;;;;;;2.37;56.30;100403.88;4501621;31;20194;-72
2022/01/08 09:37:18;;;;;;;19.15;8.15;;;;;;;2.43;55.88;100397.91;4501513;31;20519;-72
2022/01/08 09:39:46;;;;;;;17.55;8.20;;;;;;;2.66;54.05;100391.47;4501519;31;20114;-71
2022/01/08 09:42:13;;;;;;;16.67;7.97;;;;;;;2.67;55.10;100387.16;4501592;31;20095;-71
2022/01/08 09:44:44;;;;;;;16.98;8.32;;;;;;;2.84;54.03;100390.97;4500515;31;20091;-71
2022/01/08 09:47:12;;;;;;;16.52;8.48;;;;;;;3.02;53.71;100388.69;4501367;31;20107;-71
2022/01/08 09:49:40;;;;;;;22.15;9.75;;;;;;;3.41;53.82;100386.78;4501472;31;20106;-71
2022/01/08 09:52:07;;;;;;;18.70;8.73;;;;;;;3.64;51.22;100387.16;4501448;31;20867;-71
2022/01/08 09:54:35;;;;;;;18.02;8.15;;;;;;;3.81;50.77;100380.47;4501470;31;20121;-71
2022/01/08 09:57:03;;;;;;;16.12;8.25;;;;;;;4.13;50.25;100383.56;4501737;31;20167;-71
2022/01/08 09:59:31;;;;;;;20.80;8.45;;;;;;;4.49;50.75;100382.31;4501470;31;20110;-70
2022/01/08 10:02:00;;;;;;;15.73;8.73;;;;;;;4.43;49.67;100390.94;4501482;31;20089;-71
2022/01/08 10:04:36;;;;;;;12.93;7.12;;;;;;;4.49;50.36;100380.59;4501248;31;20144;-71
2022/01/08 10:07:20;;;;;;;19.55;8.32;;;;;;;4.66;48.80;100378.16;4486688;31;20419;-71
2022/01/08 10:10:17;;;;;;;12.32;7.75;;;;;;;4.68;47.52;100370.38;4501265;31;20087;-71
2022/01/08 10:12:45;;;;;;;16.20;7.97;;;;;;;4.15;48.24;100361.00;4501252;31;20100;-71
2022/01/08 10:18:01;;;;;;;15.52;7.50;;;;;;;4.91;46.68;100353.25;4501121;31;20114;-70
2022/01/08 10:20:35;;;;;;;16.02;8.30;;;;;;;5.29;46.82;100347.50;4501209;31;20087;-71
2022/01/08 10:23:08;;;;;;;21.92;7.80;;;;;;;4.62;47.74;100346.81;4501066;31;20100;-71
2022/01/08 10:25:35;;;;;;;13.95;7.65;;;;;;;4.51;46.90;100347.53;4501137;31;20091;-71
2022/01/08 10:28:02;;;;;;;12.05;7.30;;;;;;;4.18;48.10;100350.62;4501038;31;20391;-71
2022/01/08 10:30:30;;;;;;;18.35;8.45;;;;;;;3.96;49.32;100343.38;4501088;31;20134;-71
2022/01/08 10:32:59;;;;;;;16.52;8.50;;;;;;;3.78;49.43;100342.25;4501195;31;20160;-71
2022/01/08 10:35:52;;;;;;;17.55;8.32;;;;;;;3.90;49.18;100344.12;4500912;31;20108;-71
2022/01/08 10:38:19;;;;;;;15.45;9.10;;;;;;;3.53;49.73;100351.41;4500864;31;20487;-71
2022/01/08 10:40:46;;;;;;;14.95;7.62;;;;;;;3.81;49.41;100349.19;4500745;31;20160;-71
2022/01/08 10:43:26;;;;;;;18.80;9.07;;;;;;;3.86;49.21;100351.91;4500749;31;20099;-71
2022/01/08 10:45:56;;;;;;;18.62;8.07;;;;;;;3.86;48.83;100342.34;4500792;31;20159;-71
2022/01/08 10:48:29;;;;;;;17.33;8.55;;;;;;;3.82;49.86;100341.44;4500670;31;20088;-71
2022/01/08 10:51:20;;;;;;;17.35;8.13;;;;;;;3.89;48.93;100342.41;4500791;31;20110;-71
2022/01/08 10:54:15;;;;;;;19.10;8.40;;;;;;;3.94;49.33;100355.47;4500697;31;20149;-71
2022/01/08 10:56:45;;;;;;;15.85;8.07;;;;;;;3.73;48.33;100349.09;4502653;31;20146;-71
2022/01/08 10:59:21;;;;;;;13.88;7.90;;;;;;;3.47;49.10;100356.50;4502727;31;20075;-71
2022/01/08 11:01:56;;;;;;;19.42;9.00;;;;;;;3.96;48.96;100352.06;4502983;31;20142;-71
2022/01/08 11:04:46;;;;;;;16.80;8.77;;;;;;;3.63;47.58;100348.94;4502687;31;20141;-71
2022/01/08 11:07:23;;;;;;;15.80;8.13;;;;;;;3.51;48.38;100344.41;4502659;31;20111;-71
2022/01/08 11:09:52;;;;;;;18.83;8.77;;;;;;;3.77;50.16;100345.69;4502732;31;20084;-71
2022/01/08 11:12:35;;;;;;;19.12;8.98;;;;;;;3.81;49.31;100342.25;4502569;31;20397;-71
2022/01/08 11:17:46;;;;;;;19.80;8.45;;;;;;;3.50;49.21;100329.66;4502443;31;20878;-70
2022/01/08 11:20:13;;;;;;;18.70;8.98;;;;;;;3.47;50.45;100334.81;4502493;31;20080;-71
2022/01/08 11:22:49;;;;;;;23.98;8.23;;;;;;;3.62;49.31;100332.44;4502602;31;20151;-71
2022/01/08 11:25:18;;;;;;;16.40;7.93;;;;;;;3.39;50.12;100332.03;4502778;31;20091;-71
2022/01/08 11:28:04;;;;;;;13.85;7.55;;;;;;;3.43;49.35;100330.38;4502439;31;20159;-71
2022/01/08 11:30:51;;;;;;;17.12;8.02;;;;;;;3.46;47.71;100322.59;4502563;31;20624;-71
2022/01/08 11:33:28;;;;;;;13.18;7.12;;;;;;;3.51;48.12;100329.66;4502796;31;20435;-71
2022/01/08 11:35:56;;;;;;;13.88;7.62;;;;;;;3.58;48.16;100328.91;4502728;31;20118;-71
2022/01/08 11:38:27;;;;;;;15.00;8.18;;;;;;;3.09;50.16;100341.09;4502442;31;20660;-71
2022/01/08 11:40:57;;;;;;;16.48;8.27;;;;;;;2.94;49.16;100339.97;4502514;31;20103;-71
2022/01/08 11:43:26;;;;;;;16.85;7.28;;;;;;;2.57;51.92;100336.66;4502614;31;20084;-71
2022/01/08 11:45:59;;;;;;;18.23;9.13;;;;;;;2.87;50.90;100338.97;4502098;31;20152;-71
2022/01/08 11:48:48;;;;;;;16.50;7.95;;;;;;;3.03;51.04;100334.91;4502673;31;20084;-71
2022/01/08 11:51:17;;;;;;;23.25;8.43;;;;;;;3.74;48.36;100330.00;4502599;31;20114;-71
2022/01/08 11:53:51;;;;;;;20.27;8.63;;;;;;;3.72;49.26;100326.50;4502276;31;20168;-71